Time;durP1;ratioP1;P1;durP2;ratioP2;P2;SDS_P1;SDS_P2;PMS_P1;PMS_P2;Temp;Humidity;BMP_temperature;BMP_pressure;BME280_temperature;BME280_humidity;BME280_pressure;Samples;Min_cycle;Max_cycle;Signal;HPM_P1;HPM_P2
2022/08/10 00:01:53;;;;;;;12.00;10.00;;;;;;;17.77;100.00;97705.70;109726;1250;58887;-73
2022/08/10 00:04:23;;;;;;;12.00;10.60;;;;;;;17.77;100.00;97706.90;109876;1250;70947;-74
2022/08/10 00:06:53;;;;;;;13.00;11.00;;;;;;;17.78;100.00;97707.05;110178;1250;68670;-73
2022/08/10 00:09:24;;;;;;;12.90;10.80;;;;;;;17.77;100.00;97704.33;110045;1250;67474;-73
2022/08/10 00:11:54;;;;;;;13.20;11.00;;;;;;;17.76;100.00;97704.35;109922;1250;58920;-73
2022/08/10 00:14:23;;;;;;;13.60;11.20;;;;;;;17.78;100.00;97699.30;110041;1250;58883;-75
2022/08/10 00:16:52;;;;;;;13.00;11.50;;;;;;;17.77;100.00;97703.06;109833;1250;70037;-73
2022/08/10 00:19:21;;;;;;;15.40;13.70;;;;;;;17.77;100.00;97705.21;110146;1249;69295;-74
2022/08/10 00:21:51;;;;;;;11.90;10.70;;;;;;;17.76;100.00;97707.26;109799;1250;68605;-72
2022/08/10 00:24:21;;;;;;;17.20;14.70;;;;;;;17.72;100.00;97701.94;109707;1250;58900;-72
2022/08/10 00:26:50;;;;;;;;;;;;;;;17.69;100.00;97706.69;109728;1250;58887;-71
2022/08/10 00:29:39;;;;;;;16.00;13.40;;;;;;;17.59;100.00;97702.35;109685;1250;70741;-73
2022/08/10 00:32:09;;;;;;;16.70;13.50;;;;;;;17.53;100.00;97700.08;109681;1248;69182;-72
2022/08/10 00:34:38;;;;;;;17.50;15.10;;;;;;;17.51;100.00;97702.41;109925;1250;69259;-72
2022/08/10 00:37:07;;;;;;;15.30;13.30;;;;;;;17.47;100.00;97699.08;109941;1249;59285;-73
2022/08/10 00:39:37;;;;;;;12.00;10.70;;;;;;;17.45;100.00;97696.27;109734;1249;59396;-71
2022/08/10 00:42:09;;;;;;;12.60;10.10;;;;;;;17.46;100.00;97699.21;109760;1249;70773;-72
2022/08/10 00:44:42;;;;;;;12.60;10.80;;;;;;;17.48;100.00;97700.74;109720;1249;67784;-74
2022/08/10 00:47:13;;;;;;;9.90;8.80;;;;;;;17.50;100.00;97699.14;109901;1249;69420;-74
2022/08/10 00:50:04;;;;;;;11.90;9.30;;;;;;;17.52;100.00;97696.11;109857;1249;58946;-72
2022/08/10 00:52:35;;;;;;;14.90;11.60;;;;;;;17.55;100.00;97693.71;109791;1250;58889;-72
2022/08/10 00:55:06;;;;;;;13.10;10.80;;;;;;;17.59;100.00;97688.10;109714;1248;70548;-74
2022/08/10 00:57:37;;;;;;;14.00;11.10;;;;;;;17.62;100.00;97687.64;109696;1250;69448;-73
2022/08/10 01:00:08;;;;;;;12.10;10.20;;;;;;;17.63;100.00;97682.60;109813;1250;68616;-72
2022/08/10 01:02:39;;;;;;;12.30;10.50;;;;;;;17.64;100.00;97684.35;109764;1249;59286;-74
2022/08/10 01:05:13;;;;;;;11.50;10.30;;;;;;;17.64;100.00;97684.02;109873;1250;58894;-72
2022/08/10 01:08:28;;;;;;;13.10;11.70;;;;;;;17.62;100.00;97688.83;109689;1249;70004;-74
2022/08/10 01:11:32;;;;;;;14.00;12.30;;;;;;;17.57;100.00;97690.55;109846;1251;68882;-71
2022/08/10 01:14:40;;;;;;;14.60;12.70;;;;;;;17.54;100.00;97688.54;109771;1250;69542;-74
2022/08/10 01:17:16;;;;;;;13.30;11.60;;;;;;;17.54;100.00;97683.29;109998;1250;58880;-73
2022/08/10 01:19:58;;;;;;;15.10;12.70;;;;;;;17.53;100.00;97679.66;109801;1250;58947;-72
2022/08/10 01:23:05;;;;;;;14.40;12.90;;;;;;;17.52;100.00;97681.69;109725;1250;70780;-72
2022/08/10 01:25:54;;;;;;;11.70;10.50;;;;;;;17.52;100.00;97682.23;109721;1249;69590;-73
2022/08/10 01:29:26;;;;;;;14.00;11.80;;;;;;;17.52;100.00;97683.77;109919;1250;69344;-72
2022/08/10 01:32:01;;;;;;;14.40;11.90;;;;;;;17.53;100.00;97684.81;109649;1250;58857;-71
2022/08/10 01:35:02;;;;;;;12.60;11.00;;;;;;;17.53;100.00;97682.86;109818;1249;58852;-73
2022/08/10 01:37:37;;;;;;;11.10;9.90;;;;;;;17.54;100.00;97689.40;109792;1250;69918;-73
2022/08/10 01:40:12;;;;;;;12.00;10.80;;;;;;;17.55;100.00;97684.89;109897;1250;68541;-73
2022/08/10 01:42:45;;;;;;;15.30;13.70;;;;;;;17.56;100.00;97683.73;109814;1250;68840;-73
2022/08/10 01:45:17;;;;;;;11.10;10.00;;;;;;;17.57;100.00;97682.13;109776;1250;58883;-73
2022/08/10 01:50:52;;;;;;;13.90;12.00;;;;;;;17.57;100.00;97683.14;109809;1249;70299;-72
2022/08/10 01:53:35;;;;;;;14.90;12.50;;;;;;;17.58;100.00;97681.48;109740;1250;68665;-73
2022/08/10 01:56:13;;;;;;;14.60;13.00;;;;;;;17.59;100.00;97685.55;109825;1250;68679;-72
2022/08/10 01:58:45;;;;;;;13.60;11.50;;;;;;;17.60;100.00;97686.55;109768;1250;58959;-74
2022/08/10 02:01:18;;;;;;;12.80;11.30;;;;;;;17.62;100.00;97682.20;109815;1249;58887;-74
2022/08/10 02:03:51;;;;;;;11.20;9.90;;;;;;;17.63;100.00;97681.91;109804;1249;69809;-73
2022/08/10 02:06:42;;;;;;;12.20;10.20;;;;;;;17.64;100.00;97685.11;109822;1250;69390;-73
2022/08/10 02:09:16;;;;;;;11.80;10.20;;;;;;;17.65;100.00;97683.11;109880;1250;68707;-73
2022/08/10 02:11:49;;;;;;;11.40;10.20;;;;;;;17.66;100.00;97684.55;110132;1248;58940;-73
2022/08/10 02:14:55;;;;;;;12.60;10.70;;;;;;;17.67;100.00;97687.61;110219;1249;58831;-72
2022/08/10 02:17:47;;;;;;;13.60;11.80;;;;;;;17.68;100.00;97681.02;109885;1250;69815;-73
2022/08/10 02:20:35;;;;;;;11.20;9.70;;;;;;;17.69;100.00;97675.31;109836;1250;69356;-73
2022/08/10 02:23:10;;;;;;;11.40;10.20;;;;;;;17.69;100.00;97671.91;109790;1250;68431;-72
2022/08/10 02:25:41;;;;;;;12.40;11.10;;;;;;;17.69;100.00;97672.27;109924;1250;58953;-75
2022/08/10 02:28:16;;;;;;;14.40;12.80;;;;;;;17.68;100.00;97667.81;109814;1249;59017;-73
2022/08/10 02:31:11;;;;;;;15.00;13.50;;;;;;;17.64;100.00;97667.44;109835;1248;70091;-74
2022/08/10 02:33:46;;;;;;;14.40;12.90;;;;;;;17.60;100.00;97667.01;109690;1250;68418;-73
2022/08/10 02:36:28;;;;;;;13.30;11.90;;;;;;;17.57;100.00;97664.33;109949;1249;69302;-73
2022/08/10 02:39:03;;;;;;;13.80;12.00;;;;;;;17.55;100.00;97663.21;110004;1250;58927;-72
2022/08/10 02:41:54;;;;;;;12.80;11.50;;;;;;;17.55;100.00;97662.86;109936;1248;58948;-73
2022/08/10 02:44:52;;;;;;;13.10;11.70;;;;;;;17.55;100.00;97665.86;109900;1249;70109;-72
2022/08/10 02:47:55;;;;;;;12.00;10.60;;;;;;;17.55;100.00;97662.64;109933;1250;68632;-73
2022/08/10 02:50:40;;;;;;;13.20;11.40;;;;;;;17.55;100.00;97663.77;109804;1250;70046;-73
2022/08/10 02:53:27;;;;;;;13.20;11.70;;;;;;;17.55;100.00;97667.08;110046;1250;58955;-75
2022/08/10 02:56:30;;;;;;;13.40;12.00;;;;;;;17.55;100.00;97671.70;109955;1250;58821;-74
2022/08/10 02:59:06;;;;;;;13.40;11.90;;;;;;;17.55;100.00;97674.29;110203;1250;71390;-72
2022/08/10 03:01:42;;;;;;;16.60;12.40;;;;;;;17.56;100.00;97669.50;109867;1249;69436;-73
2022/08/10 03:04:21;;;;;;;14.00;12.10;;;;;;;17.56;100.00;97672.11;110012;1250;68632;-74
2022/08/10 03:07:14;;;;;;;11.80;10.50;;;;;;;17.55;100.00;97673.45;108539;1250;2063390;-73
2022/08/10 03:09:46;;;;;;;13.10;11.40;;;;;;;17.54;100.00;97672.52;110097;1250;59339;-73
2022/08/10 03:12:16;;;;;;;14.50;12.50;;;;;;;17.54;100.00;97676.25;109733;1249;70031;-73
2022/08/10 03:15:10;;;;;;;12.60;11.30;;;;;;;17.54;100.00;97673.98;109875;1249;68483;-74
2022/08/10 03:17:46;;;;;;;11.40;10.20;;;;;;;17.54;100.00;97677.11;110227;1250;69407;-74
2022/08/10 03:20:30;;;;;;;11.50;10.40;;;;;;;17.53;100.00;97678.63;110049;1250;58897;-74
2022/08/10 03:23:16;;;;;;;11.40;10.20;;;;;;;17.52;100.00;97681.14;109972;1250;58918;-74
2022/08/10 03:25:49;;;;;;;12.00;10.70;;;;;;;17.52;100.00;97684.16;110014;1250;69765;-73
2022/08/10 03:28:25;;;;;;;13.00;11.60;;;;;;;17.51;100.00;97679.10;109754;1249;68635;-72
2022/08/10 03:30:58;;;;;;;11.90;10.60;;;;;;;17.51;100.00;97680.91;109692;1249;69450;-73
2022/08/10 03:33:34;;;;;;;12.30;11.00;;;;;;;17.49;100.00;97680.20;109857;1250;58882;-73
2022/08/10 03:36:05;;;;;;;13.50;12.10;;;;;;;17.47;100.00;97682.16;109949;1249;58911;-73
2022/08/10 03:38:54;;;;;;;15.40;13.70;;;;;;;17.45;100.00;97684.27;109818;1250;71332;-74
2022/08/10 03:41:30;;;;;;;15.60;12.60;;;;;;;17.43;100.00;97681.88;109903;1250;69373;-73
2022/08/10 03:44:05;;;;;;;12.50;11.20;;;;;;;17.42;100.00;97680.04;109907;1249;68608;-73
2022/08/10 03:46:37;;;;;;;12.10;10.80;;;;;;;17.42;100.00;97683.36;110109;1250;58960;-72
2022/08/10 03:49:07;;;;;;;10.30;9.30;;;;;;;17.44;100.00;97684.44;110039;1250;58834;-74
2022/08/10 03:51:37;;;;;;;11.00;9.90;;;;;;;17.47;100.00;97682.01;109902;1250;70153;-73
2022/08/10 03:54:07;;;;;;;10.50;9.40;;;;;;;17.49;100.00;97685.55;109736;1250;69462;-74
2022/08/10 03:56:39;;;;;;;10.10;9.10;;;;;;;17.50;100.00;97690.84;109960;1248;69377;-74
2022/08/10 03:59:13;;;;;;;10.40;9.40;;;;;;;17.51;100.00;97691.61;109657;1250;58932;-73
2022/08/10 04:01:44;;;;;;;9.10;7.70;;;;;;;17.53;100.00;97694.48;109850;1250;58899;-73
2022/08/10 04:04:34;;;;;;;10.00;9.00;;;;;;;17.55;100.00;97695.15;109896;1250;70090;-73
2022/08/10 04:07:03;;;;;;;13.00;11.60;;;;;;;17.56;100.00;97698.00;109951;1250;70197;-72
2022/08/10 04:09:35;;;;;;;13.50;11.70;;;;;;;17.58;100.00;97698.40;109796;1249;69393;-73
2022/08/10 04:12:23;;;;;;;13.30;11.50;;;;;;;17.59;100.00;97696.66;109672;1250;58972;-74
2022/08/10 04:14:52;;;;;;;14.30;12.50;;;;;;;17.62;100.00;97697.69;110173;1249;58968;-73
2022/08/10 04:17:24;;;;;;;12.20;10.90;;;;;;;17.63;100.00;97703.15;109854;1249;70762;-72
2022/08/10 04:20:30;;;;;;;14.90;12.20;;;;;;;17.61;100.00;97697.57;110343;1250;68664;-73
2022/08/10 04:23:11;;;;;;;11.70;10.20;;;;;;;17.61;100.00;97701.08;110044;1250;70165;-73
2022/08/10 04:25:40;;;;;;;15.20;12.20;;;;;;;17.64;100.00;97701.01;110246;1249;58942;-73
2022/08/10 04:28:11;;;;;;;16.30;12.60;;;;;;;17.65;100.00;97701.53;109939;1250;58873;-73
2022/08/10 04:30:42;;;;;;;12.80;10.90;;;;;;;17.68;100.00;97701.31;109904;1250;69794;-72
2022/08/10 04:33:16;;;;;;;10.20;9.10;;;;;;;17.72;100.00;97703.21;110235;1250;68774;-72
2022/08/10 04:35:46;;;;;;;11.30;10.10;;;;;;;17.77;100.00;97696.70;110405;1249;69406;-72
2022/08/10 04:38:17;;;;;;;10.60;9.50;;;;;;;17.83;100.00;97693.20;110052;1250;58923;-71
2022/08/10 04:40:46;;;;;;;11.50;10.30;;;;;;;17.89;100.00;97693.31;109876;1249;58849;-72
2022/08/10 04:43:16;;;;;;;11.80;10.60;;;;;;;17.95;100.00;97693.36;110018;1250;69973;-72
2022/08/10 04:45:46;;;;;;;12.50;10.50;;;;;;;18.01;100.00;97693.81;109903;1249;68719;-71
2022/08/10 04:48:23;;;;;;;10.70;9.30;;;;;;;18.09;100.00;97693.09;109946;1250;69259;-71
2022/08/10 04:51:11;;;;;;;9.10;8.30;;;;;;;18.18;100.00;97691.84;109986;1249;58930;-71
2022/08/10 04:53:49;;;;;;;10.80;9.70;;;;;;;18.26;100.00;97688.38;109807;1250;58899;-73
2022/08/10 04:56:35;;;;;;;10.50;9.40;;;;;;;18.33;99.34;97690.88;110138;1250;70721;-72
2022/08/10 04:59:06;;;;;;;9.30;8.40;;;;;;;18.41;99.13;97689.19;109978;1250;68653;-71
2022/08/10 05:01:38;;;;;;;9.50;8.60;;;;;;;18.49;98.63;97692.59;109933;1250;68704;-72
2022/08/10 05:04:26;;;;;;;9.20;8.20;;;;;;;18.56;97.40;97694.86;109794;1249;58873;-72
2022/08/10 05:07:12;;;;;;;10.20;9.20;;;;;;;18.61;96.71;97696.15;109995;1250;58777;-73
2022/08/10 05:09:49;;;;;;;11.20;10.10;;;;;;;18.60;95.91;97696.58;110268;1250;70317;-70
2022/08/10 05:12:37;;;;;;;13.00;11.70;;;;;;;18.65;96.21;97696.34;110139;1250;69273;-71
2022/08/10 05:15:11;;;;;;;13.30;10.60;;;;;;;18.64;96.27;97694.05;110026;1250;70318;-73
2022/08/10 05:17:41;;;;;;;11.30;10.20;;;;;;;18.69;96.53;97696.91;110003;1249;58949;-72
2022/08/10 05:20:30;;;;;;;13.20;11.00;;;;;;;18.74;96.13;97694.98;110004;1249;59115;-71
2022/08/10 05:22:59;;;;;;;10.00;8.90;;;;;;;18.80;95.78;97696.57;109803;1250;71155;-71
2022/08/10 05:25:28;;;;;;;10.40;9.00;;;;;;;18.83;95.06;97694.80;110044;1250;69186;-72
2022/08/10 05:28:05;;;;;;;13.80;12.30;;;;;;;18.88;94.54;97697.21;110124;1249;69533;-72
2022/08/10 05:30:35;;;;;;;11.70;10.50;;;;;;;18.88;94.46;97700.35;110139;1249;58928;-71
2022/08/10 05:33:03;;;;;;;12.20;10.80;;;;;;;18.87;93.94;97701.31;110050;1250;58982;-73
2022/08/10 05:35:37;;;;;;;15.00;13.60;;;;;;;18.84;93.93;97702.82;110233;1250;69078;-72
2022/08/10 05:38:27;;;;;;;14.10;12.60;;;;;;;18.79;94.48;97709.64;110114;1250;69622;-72
2022/08/10 05:40:56;;;;;;;13.80;12.50;;;;;;;18.80;94.24;97714.34;110014;1249;69477;-71
2022/08/10 05:43:26;;;;;;;15.60;14.10;;;;;;;18.78;95.26;97717.40;110038;1249;58942;-70
2022/08/10 05:45:54;;;;;;;13.40;12.10;;;;;;;18.78;95.76;97720.52;109924;1250;58891;-73
2022/08/10 05:48:43;;;;;;;11.60;10.40;;;;;;;18.79;95.10;97726.25;109871;1249;71145;-72
2022/08/10 05:51:29;;;;;;;11.00;9.90;;;;;;;18.82;94.99;97726.45;110235;1250;70048;-71
2022/08/10 05:53:59;;;;;;;13.60;12.20;;;;;;;18.86;94.63;97733.36;110045;1249;69205;-71
2022/08/10 05:56:36;;;;;;;12.90;11.50;;;;;;;18.83;94.48;97733.14;109966;1250;59039;-73
2022/08/10 05:59:32;;;;;;;10.50;9.50;;;;;;;18.84;94.73;97732.84;109942;1250;58826;-73
2022/08/10 06:02:29;;;;;;;12.20;9.80;;;;;;;18.86;94.19;97733.94;110122;1250;71424;-71
2022/08/10 06:05:08;;;;;;;11.20;10.00;;;;;;;18.86;94.14;97734.07;110193;1250;69406;-74
2022/08/10 06:07:59;;;;;;;13.80;12.50;;;;;;;18.89;93.84;97735.41;110177;1250;69425;-73
2022/08/10 06:10:30;;;;;;;13.10;11.70;;;;;;;18.91;93.60;97737.10;109926;1248;58962;-72
2022/08/10 06:16:06;;;;;;;11.60;10.10;;;;;;;18.86;93.86;97742.73;109802;1249;68958;-72
2022/08/10 06:18:36;;;;;;;11.00;9.90;;;;;;;18.91;93.45;97739.97;109824;1250;68470;-72
2022/08/10 06:21:05;;;;;;;10.90;9.50;;;;;;;18.97;93.03;97742.29;109967;1249;69256;-71
2022/08/10 06:23:36;;;;;;;13.30;10.70;;;;;;;19.01;92.98;97736.43;109887;1250;58941;-71
2022/08/10 06:26:06;;;;;;;12.20;10.70;;;;;;;19.00;92.37;97734.54;109841;1250;58886;-69
2022/08/10 06:29:08;;;;;;;11.30;10.10;;;;;;;18.97;92.21;97737.75;109818;1249;70685;-70
2022/08/10 06:31:43;;;;;;;12.00;10.70;;;;;;;18.95;92.11;97732.66;110299;1250;69537;-71
2022/08/10 06:34:30;;;;;;;13.00;10.20;;;;;;;18.93;92.04;97734.18;110114;1250;68891;-73
2022/08/10 06:37:02;;;;;;;11.00;9.90;;;;;;;18.95;92.20;97738.12;110169;1250;58804;-74
2022/08/10 06:39:32;;;;;;;14.20;12.50;;;;;;;18.98;92.34;97737.27;109946;1249;58814;-73
2022/08/10 06:42:14;;;;;;;11.30;10.00;;;;;;;18.99;92.30;97742.83;109905;1250;69977;-73
2022/08/10 06:44:54;;;;;;;13.10;11.50;;;;;;;18.98;91.76;97747.34;109707;1250;70309;-75
2022/08/10 06:47:36;;;;;;;12.40;10.70;;;;;;;18.95;91.34;97747.08;110000;1250;69213;-74
2022/08/10 06:50:18;;;;;;;13.00;11.70;;;;;;;18.89;91.20;97749.98;109893;1250;58977;-75
2022/08/10 06:53:14;;;;;;;10.00;9.00;;;;;;;18.83;91.32;97751.08;109977;1248;58897;-74
2022/08/10 06:55:48;;;;;;;12.10;10.80;;;;;;;18.81;91.55;97750.40;109802;1250;71303;-73
2022/08/10 06:58:31;;;;;;;13.80;11.60;;;;;;;18.77;91.98;97752.41;109974;1250;69666;-75
2022/08/10 07:01:03;;;;;;;13.80;11.90;;;;;;;18.74;92.06;97750.82;109881;1249;69224;-75
2022/08/10 07:03:41;;;;;;;13.10;11.80;;;;;;;18.74;92.43;97754.20;110044;1250;58903;-76
2022/08/10 07:06:12;;;;;;;10.30;9.30;;;;;;;18.74;92.93;97751.91;109863;1249;58900;-74
2022/08/10 07:08:42;;;;;;;13.80;11.90;;;;;;;18.76;93.42;97749.70;110007;1249;70168;-72
2022/08/10 07:11:13;;;;;;;13.30;11.50;;;;;;;18.76;93.98;97751.45;109882;1250;69517;-73
2022/08/10 07:13:44;;;;;;;10.70;9.60;;;;;;;18.75;93.61;97748.56;109855;1250;69397;-73
2022/08/10 07:16:35;;;;;;;11.60;10.40;;;;;;;18.74;93.19;97750.95;110024;1249;58874;-74
2022/08/10 07:19:07;;;;;;;9.70;8.60;;;;;;;18.71;93.22;97747.52;110129;1250;58870;-74
2022/08/10 07:21:42;;;;;;;8.10;7.30;;;;;;;18.72;92.74;97750.25;110050;1250;71156;-74
2022/08/10 07:24:13;;;;;;;9.00;7.80;;;;;;;18.75;92.11;97749.46;110001;1250;68840;-73
2022/08/10 07:26:54;;;;;;;7.90;7.10;;;;;;;18.75;91.62;97751.45;110205;1250;69641;-73
2022/08/10 07:29:30;;;;;;;10.90;8.60;;;;;;;18.73;90.89;97757.03;110042;1250;59316;-74
2022/08/10 07:32:21;;;;;;;9.20;8.30;;;;;;;18.72;90.46;97757.35;110120;1250;58882;-73
2022/08/10 07:34:52;;;;;;;8.20;7.30;;;;;;;18.71;90.48;97754.86;110481;1248;69915;-74
2022/08/10 07:37:24;;;;;;;9.50;7.90;;;;;;;18.72;90.44;97758.27;110042;1250;69564;-73
2022/08/10 07:39:54;;;;;;;7.70;6.90;;;;;;;18.74;90.06;97761.94;110137;1250;69327;-72
2022/08/10 07:42:33;;;;;;;7.90;7.00;;;;;;;18.76;90.02;97761.52;110119;1249;59213;-74
2022/08/10 07:45:04;;;;;;;6.80;6.10;;;;;;;18.80;89.38;97763.94;110248;1250;58105;-73
2022/08/10 07:47:40;;;;;;;5.70;5.10;;;;;;;18.88;89.48;97762.70;110216;1250;70771;-72
2022/08/10 07:50:24;;;;;;;5.10;4.70;;;;;;;18.97;88.75;97767.53;110003;1250;69874;-71
2022/08/10 07:53:01;;;;;;;5.30;4.70;;;;;;;19.02;87.63;97764.52;110144;1249;69253;-73
2022/08/10 07:55:32;;;;;;;4.90;4.20;;;;;;;19.05;86.38;97762.85;110272;1250;58925;-69
2022/08/10 07:58:28;;;;;;;5.10;4.20;;;;;;;19.10;86.25;97758.67;110140;1250;58885;-71
2022/08/10 08:01:00;;;;;;;4.30;3.90;;;;;;;19.18;86.68;97763.14;110011;1249;71278;-68
2022/08/10 08:03:30;;;;;;;4.60;3.90;;;;;;;19.19;85.00;97763.40;109925;1250;68462;-69
2022/08/10 08:06:01;;;;;;;4.00;3.60;;;;;;;19.14;84.41;97770.47;109948;1250;68769;-67
2022/08/10 08:08:42;;;;;;;4.20;3.80;;;;;;;19.05;84.39;97774.01;110008;1249;58931;-69
2022/08/10 08:11:13;;;;;;;4.10;3.20;;;;;;;19.00;84.25;97775.53;110051;1250;58878;-69
2022/08/10 08:13:56;;;;;;;4.30;3.90;;;;;;;18.95;83.81;97774.17;109858;1250;69798;-68
2022/08/10 08:16:35;;;;;;;4.60;4.00;;;;;;;18.88;83.99;97777.27;109715;1250;67423;-69
2022/08/10 08:19:12;;;;;;;4.60;3.70;;;;;;;18.81;84.26;97782.95;109966;1248;68928;-68
2022/08/10 08:22:02;;;;;;;4.40;4.00;;;;;;;18.76;84.02;97784.48;109803;1248;58873;-69
2022/08/10 08:24:55;;;;;;;4.60;3.30;;;;;;;18.71;83.88;97787.96;110094;1250;58869;-69
2022/08/10 08:27:26;;;;;;;4.60;3.80;;;;;;;18.67;83.77;97789.13;109970;1250;71129;-68
2022/08/10 08:29:55;;;;;;;5.60;3.60;;;;;;;18.63;84.23;97785.42;109733;1248;70108;-70
2022/08/10 08:32:27;;;;;;;4.80;4.00;;;;;;;18.62;84.87;97785.92;109818;1250;69376;-70
2022/08/10 08:35:04;;;;;;;5.40;3.70;;;;;;;18.60;85.04;97786.65;109974;1250;58945;-71
2022/08/10 08:37:36;;;;;;;4.80;3.70;;;;;;;18.56;85.39;97786.65;109952;1250;58895;-70
2022/08/10 08:40:35;;;;;;;4.70;3.90;;;;;;;18.56;86.18;97782.98;109960;1249;70158;-70
2022/08/10 08:43:43;;;;;;;3.80;3.20;;;;;;;18.53;85.97;97784.44;109815;1250;69166;-70
2022/08/10 08:46:39;;;;;;;4.50;3.10;;;;;;;18.54;86.53;97785.25;109835;1250;68460;-70
2022/08/10 08:49:45;;;;;;;4.50;3.60;;;;;;;18.55;86.81;97788.63;109795;1250;58926;-70
2022/08/10 08:52:57;;;;;;;5.50;4.20;;;;;;;18.48;88.71;97795.08;109771;1250;58873;-73
2022/08/10 08:55:37;;;;;;;4.40;3.50;;;;;;;18.33;89.50;97797.36;110084;1249;69776;-70
2022/08/10 08:58:43;;;;;;;4.60;3.40;;;;;;;18.19;91.29;97797.23;109899;1250;69250;-69
2022/08/10 09:01:30;;;;;;;6.00;3.80;;;;;;;18.13;92.80;97792.86;110133;1250;69239;-71
2022/08/10 09:04:39;;;;;;;4.80;3.40;;;;;;;18.15;92.07;97787.34;110057;1250;59301;-71
2022/08/10 09:07:40;;;;;;;5.50;3.90;;;;;;;18.14;91.42;97787.59;110034;1248;58893;-70
2022/08/10 09:10:57;;;;;;;4.70;3.70;;;;;;;18.21;91.22;97788.83;109951;1249;70560;-71
2022/08/10 09:13:49;;;;;;;6.50;3.80;;;;;;;18.28;92.40;97794.50;109890;1250;69424;-70
2022/08/10 09:16:49;;;;;;;4.20;3.20;;;;;;;18.36;91.76;97799.55;109819;1249;69233;-70
2022/08/10 09:19:30;;;;;;;3.70;2.90;;;;;;;18.49;91.15;97805.52;110002;1250;58904;-69
2022/08/10 09:22:31;;;;;;;4.80;2.90;;;;;;;18.55;90.80;97810.73;109794;1250;58949;-69
2022/08/10 09:25:09;;;;;;;3.70;3.10;;;;;;;18.57;90.43;97810.52;109886;1250;70775;-69
2022/08/10 09:27:44;;;;;;;4.40;3.50;;;;;;;18.54;91.32;97808.88;109790;1250;69818;-69
2022/08/10 09:30:30;;;;;;;5.10;3.30;;;;;;;18.46;90.97;97806.69;109819;1250;68455;-69
2022/08/10 09:33:14;;;;;;;3.90;3.30;;;;;;;18.41;90.84;97802.83;110020;1250;58974;-69
2022/08/10 09:36:29;;;;;;;4.20;2.80;;;;;;;18.34;92.85;97805.05;109964;1250;58951;-70
2022/08/10 09:39:28;;;;;;;5.30;3.20;;;;;;;18.35;92.24;97803.77;110154;1250;70524;-70
2022/08/10 09:42:22;;;;;;;4.50;3.20;;;;;;;18.18;93.25;97801.02;109922;1250;68219;-70
2022/08/10 09:45:05;;;;;;;4.10;3.30;;;;;;;18.16;93.18;97794.09;110046;1250;69237;-70
2022/08/10 09:48:00;;;;;;;5.10;4.00;;;;;;;18.21;93.54;97794.71;109770;1250;58963;-70
2022/08/10 09:50:45;;;;;;;3.40;2.80;;;;;;;18.27;92.97;97795.48;109720;1251;58854;-70
2022/08/10 09:54:04;;;;;;;3.60;2.90;;;;;;;18.40;92.81;97794.39;109987;1250;70541;-70
2022/08/10 09:56:51;;;;;;;4.50;3.50;;;;;;;18.61;91.68;97793.24;110008;1250;69472;-67
2022/08/10 09:59:34;;;;;;;4.20;3.30;;;;;;;18.74;90.53;97794.41;109641;1250;68258;-71
2022/08/10 10:02:48;;;;;;;3.70;2.80;;;;;;;18.82;89.93;97793.98;109858;1250;58858;-69
2022/08/10 10:05:45;;;;;;;4.50;3.00;;;;;;;18.91;89.65;97796.98;109758;1250;58847;-68
2022/08/10 10:08:29;;;;;;;3.00;2.00;;;;;;;19.00;89.15;97792.29;109757;1250;70536;-68
2022/08/10 10:11:20;;;;;;;3.80;2.50;;;;;;;19.20;89.28;97787.81;109929;1250;69634;-68
2022/08/10 10:14:20;;;;;;;3.80;2.40;;;;;;;19.47;89.34;97786.33;109989;1250;69223;-70
2022/08/10 10:17:06;;;;;;;3.60;2.70;;;;;;;19.75;88.32;97792.26;109836;1250;58928;-69
2022/08/10 10:20:01;;;;;;;4.70;3.30;;;;;;;19.99;86.75;97791.01;109937;1250;58882;-68
2022/08/10 10:22:48;;;;;;;3.50;2.50;;;;;;;20.15;84.52;97789.13;109843;1250;69894;-70
2022/08/10 10:25:36;;;;;;;3.70;2.70;;;;;;;20.39;84.02;97792.05;109805;1250;69226;-69
2022/08/10 10:28:40;;;;;;;3.20;2.50;;;;;;;20.64;85.14;97794.84;109799;1250;69168;-68
2022/08/10 10:31:33;;;;;;;4.20;2.20;;;;;;;21.15;83.51;97791.20;109705;1250;58929;-70
2022/08/10 10:34:22;;;;;;;2.50;2.00;;;;;;;21.62;81.28;97782.65;110034;1248;58879;-70
2022/08/10 10:36:53;;;;;;;3.20;2.50;;;;;;;22.23;78.05;97781.41;109869;1250;69537;-70
2022/08/10 10:39:25;;;;;;;3.60;2.20;;;;;;;22.51;73.47;97783.31;109881;1248;68513;-71
2022/08/10 10:42:06;;;;;;;2.50;2.10;;;;;;;22.86;74.70;97784.02;109833;1249;69211;-69
2022/08/10 10:45:26;;;;;;;2.80;2.10;;;;;;;23.49;71.31;97780.67;109754;1250;58914;-70
2022/08/10 10:48:03;;;;;;;2.40;1.80;;;;;;;24.00;66.20;97780.83;109685;1250;59288;-68
2022/08/10 10:51:09;;;;;;;2.80;2.10;;;;;;;24.33;67.68;97774.70;109675;1250;71404;-68
2022/08/10 10:53:50;;;;;;;2.50;2.10;;;;;;;24.23;65.72;97776.77;109793;1250;69436;-69
2022/08/10 10:56:57;;;;;;;2.20;1.90;;;;;;;23.78;67.30;97777.98;109752;1249;69545;-69
2022/08/10 10:59:43;;;;;;;1.70;1.20;;;;;;;23.38;63.76;97772.70;109383;1253;58955;-70
2022/08/10 11:02:56;;;;;;;1.70;1.30;;;;;;;23.00;63.27;97776.04;109873;1249;58178;-70
2022/08/10 11:05:39;;;;;;;3.50;1.10;;;;;;;22.55;64.56;97773.39;109823;1250;71243;-70
2022/08/10 11:08:29;;;;;;;1.50;1.00;;;;;;;22.52;64.54;97770.79;110058;1248;68807;-69
2022/08/10 11:11:10;;;;;;;1.20;1.10;;;;;;;22.54;64.60;97768.77;109723;1250;69239;-69
2022/08/10 11:14:17;;;;;;;2.40;1.20;;;;;;;22.55;63.81;97771.80;109750;1250;58955;-71
2022/08/10 11:17:16;;;;;;;1.10;0.80;;;;;;;22.54;65.05;97772.11;109759;1250;58912;-70
2022/08/10 11:19:59;;;;;;;1.10;0.90;;;;;;;22.89;63.86;97772.00;109867;1250;70065;-68
2022/08/10 11:22:49;;;;;;;1.80;0.90;;;;;;;23.15;62.82;97767.49;109860;1250;69236;-71
2022/08/10 11:25:31;;;;;;;2.40;0.90;;;;;;;23.33;62.80;97770.98;109797;1250;68570;-69
2022/08/10 11:28:24;;;;;;;1.20;1.00;;;;;;;23.33;61.68;97770.27;109658;1250;60072;-71
2022/08/10 11:31:02;;;;;;;1.00;0.80;;;;;;;23.27;62.10;97768.53;109813;1250;59710;-71
2022/08/10 11:33:43;;;;;;;1.30;1.10;;;;;;;23.19;61.48;97768.02;109928;1250;70827;-72
2022/08/10 11:36:50;;;;;;;1.80;1.20;;;;;;;23.19;62.40;97766.70;110705;1250;70156;-71
2022/08/10 11:39:45;;;;;;;1.60;1.00;;;;;;;23.08;62.26;97768.10;110072;1249;70110;-71
2022/08/10 11:42:22;;;;;;;1.20;1.00;;;;;;;22.97;62.31;97771.08;109957;1250;60134;-71
2022/08/10 11:45:19;;;;;;;1.50;1.00;;;;;;;22.95;62.61;97760.44;110049;1250;59639;-71
2022/08/10 11:48:05;;;;;;;1.50;1.10;;;;;;;23.17;62.74;97760.06;109798;1250;69676;-71
2022/08/10 11:50:42;;;;;;;2.30;1.30;;;;;;;23.47;62.19;97755.11;109703;1250;68393;-70
2022/08/10 11:53:40;;;;;;;2.50;1.40;;;;;;;23.61;61.40;97759.69;109853;1250;69869;-71
2022/08/10 11:56:15;;;;;;;1.80;1.30;;;;;;;23.77;60.61;97764.77;109745;1250;59677;-71
2022/08/10 12:01:47;;;;;;;1.40;1.30;;;;;;;23.85;59.81;97764.05;110067;1250;71378;-70
2022/08/10 12:04:17;;;;;;;1.40;1.10;;;;;;;23.78;60.71;97764.37;110076;1250;69210;-70
2022/08/10 12:06:48;;;;;;;1.20;1.10;;;;;;;24.09;59.46;97764.44;109953;1250;69837;-70
2022/08/10 12:09:25;;;;;;;2.40;1.30;;;;;;;24.30;58.72;97761.13;109880;1249;59710;-71
2022/08/10 12:12:16;;;;;;;1.40;1.00;;;;;;;24.45;58.81;97760.36;110053;1250;59689;-70
2022/08/10 12:15:11;;;;;;;1.40;1.10;;;;;;;24.64;57.56;97760.70;110018;1250;71359;-71
2022/08/10 12:17:52;;;;;;;1.50;1.20;;;;;;;24.86;56.72;97750.23;109816;1250;69384;-70
2022/08/10 12:20:34;;;;;;;1.50;1.00;;;;;;;24.92;55.85;97745.17;109897;1249;68488;-70
2022/08/10 12:23:21;;;;;;;1.30;1.10;;;;;;;25.08;55.53;97741.62;109949;1250;59713;-68
2022/08/10 12:26:06;;;;;;;2.00;1.20;;;;;;;25.20;55.12;97738.16;110051;1248;59689;-68
2022/08/10 12:29:00;;;;;;;2.80;1.30;;;;;;;25.07;54.03;97737.27;109760;1249;72062;-70
2022/08/10 12:31:58;;;;;;;1.10;1.00;;;;;;;25.03;54.41;97734.98;110512;1250;68890;-70